Куммолово

Карта отелей и гостиниц, располагающихся рядом с аэропортом Куммолово :

Куммолово Ленинградская область 59° 39' 16.4412" N, 28° 59' 46.0212" E
Код аэродрома ИКАО
ULSU
Код аэродрома RU
УЛСУ
Координаты
N59.65457° E028.99612°
Превышение над уровнем моря
113
Основная полоса
01/19
Курс магнитный
011/191
Длина основной ВПП
800
Ширина основной ВПП
60
Покрытие основной ВПП
Нетвёрдое (грунт)
Освещение ВПП
Нет
Тип: 
Аэродром
Класс аэродрома: 
Принадлежность: 
АОН
Статус: 
Действующий
Сайт: 
http://vk.com/club301295
E-mail аэродрома: 
Страна: 
Россия
Регион: 
Ленинградская область
Город: 
Дополнительная информация: 
Оператор: Сосновоборский Аэроклуб. Аэропортовый сбор для транзитных ВС не взимается. На аэродроме действует планерный клуб (рук. Алексей Шкредов +79219480054).

Найти трансфер

С помощью этой формы Вы можете найти трансфер из аэропорта Куммолово в город, аэропорт или вокзал:

Карта места

Javascript is required to view this map.

Погода в аэропортах:

Авиационная погода в Могилёве

Регион: 
Погода METAR: 
UMOO 171230Z 07005MPS 4800 -RA BR OVC005 08/07 Q1014 R13/290068 NOSIG RMK QBB160
Время наблюдения
2021-09-17T12:30:00Z
Температура C
8.0
Точка росы
7.0
Направление ветра
70
Скорость ветра (узлы)
10
Метео видимость
2.98
Явления погоды
-RA BR
Условия полета
IFR
Аэропорт подробнее: 

Авиационная погода в аэропорту Новый

Регион: 
Погода METAR: 
UHHH 171830Z 24004MPS 9999 -SHRA FEW034CB 15/12 Q1009 R23R/190050 TEMPO 3100 -TSRA RMK QFE750/1001
Время наблюдения
2021-09-17T18:30:00Z
Температура C
15.0
Точка росы
12.0
Направление ветра
240
Скорость ветра (узлы)
8
Метео видимость
6.21
Явления погоды
-SHRA
Условия полета
VFR
Аэропорт подробнее: 

Авиационная погода в аэропорту Международный

Регион: 
Погода METAR: 
UKLL 171630Z 01004MPS 3600 -SHRA BKN004 BKN030CB 17/16 Q1005 R31/290055 NOSIG
Время наблюдения
2021-09-17T16:30:00Z
Температура C
17.0
Точка росы
16.0
Направление ветра
10
Скорость ветра (узлы)
8
Метео видимость
2.24
Явления погоды
-SHRA
Условия полета
LIFR
Аэропорт подробнее: 

Авиационная погода в Уральске

Регион: 
Погода METAR: 
UARR 171830Z 22002MPS 9999 -RA BKN040 08/04 Q1017 R22/CLRD70 NOSIG RMK QFE759/1012
Время наблюдения
2021-09-17T18:30:00Z
Температура C
8.0
Точка росы
4.0
Направление ветра
220
Скорость ветра (узлы)
4
Метео видимость
6.21
Явления погоды
-RA
Условия полета
VFR
Аэропорт подробнее: